sensor_id;sensor_type;location;lat;lon;timestamp;P1;durP1;ratioP1;P2;durP2;ratioP2
58982;SDS011;44771;49.982;8.560;2024-02-14T00:00:21;24.23;;;22.85;;
58982;SDS011;44771;49.982;8.560;2024-02-14T00:05:23;23.00;;;21.70;;
58982;SDS011;44771;49.982;8.560;2024-02-14T00:10:26;24.63;;;23.15;;
58982;SDS011;44771;49.982;8.560;2024-02-14T00:15:28;24.45;;;22.95;;
58982;SDS011;44771;49.982;8.560;2024-02-14T00:20:29;24.12;;;22.62;;
58982;SDS011;44771;49.982;8.560;2024-02-14T00:25:32;23.15;;;21.98;;
58982;SDS011;44771;49.982;8.560;2024-02-14T00:30:34;24.33;;;22.80;;
58982;SDS011;44771;49.982;8.560;2024-02-14T00:35:36;24.33;;;22.70;;
58982;SDS011;44771;49.982;8.560;2024-02-14T00:40:39;24.30;;;22.73;;
58982;SDS011;44771;49.982;8.560;2024-02-14T00:45:41;23.38;;;21.98;;
58982;SDS011;44771;49.982;8.560;2024-02-14T00:50:43;26.15;;;24.23;;
58982;SDS011;44771;49.982;8.560;2024-02-14T00:55:46;22.62;;;21.52;;
58982;SDS011;44771;49.982;8.560;2024-02-14T01:00:48;24.12;;;22.92;;
58982;SDS011;44771;49.982;8.560;2024-02-14T01:05:50;23.30;;;21.90;;
58982;SDS011;44771;49.982;8.560;2024-02-14T01:10:53;23.83;;;22.52;;
58982;SDS011;44771;49.982;8.560;2024-02-14T01:15:58;23.35;;;21.90;;
58982;SDS011;44771;49.982;8.560;2024-02-14T01:21:00;25.50;;;22.87;;
58982;SDS011;44771;49.982;8.560;2024-02-14T01:26:03;23.83;;;22.45;;
58982;SDS011;44771;49.982;8.560;2024-02-14T01:31:05;22.85;;;21.65;;
58982;SDS011;44771;49.982;8.560;2024-02-14T01:36:07;22.58;;;21.33;;
58982;SDS011;44771;49.982;8.560;2024-02-14T01:41:11;22.70;;;21.45;;
58982;SDS011;44771;49.982;8.560;2024-02-14T01:46:12;21.80;;;20.70;;
58982;SDS011;44771;49.982;8.560;2024-02-14T01:51:14;23.30;;;22.10;;
58982;SDS011;44771;49.982;8.560;2024-02-14T01:56:22;24.37;;;22.80;;
58982;SDS011;44771;49.982;8.560;2024-02-14T02:01:24;23.20;;;21.73;;
58982;SDS011;44771;49.982;8.560;2024-02-14T02:06:26;22.70;;;21.55;;
58982;SDS011;44771;49.982;8.560;2024-02-14T02:11:29;23.73;;;22.20;;
58982;SDS011;44771;49.982;8.560;2024-02-14T02:16:31;21.42;;;20.33;;
58982;SDS011;44771;49.982;8.560;2024-02-14T02:21:33;22.62;;;21.45;;
58982;SDS011;44771;49.982;8.560;2024-02-14T02:26:36;22.73;;;21.42;;
58982;SDS011;44771;49.982;8.560;2024-02-14T02:31:38;24.42;;;22.75;;
58982;SDS011;44771;49.982;8.560;2024-02-14T02:36:40;23.58;;;22.35;;
58982;SDS011;44771;49.982;8.560;2024-02-14T02:41:43;22.58;;;21.30;;
58982;SDS011;44771;49.982;8.560;2024-02-14T02:46:45;23.05;;;21.73;;
58982;SDS011;44771;49.982;8.560;2024-02-14T02:51:47;21.58;;;20.37;;
58982;SDS011;44771;49.982;8.560;2024-02-14T02:56:50;22.15;;;20.83;;
58982;SDS011;44771;49.982;8.560;2024-02-14T03:01:52;22.48;;;20.58;;
58982;SDS011;44771;49.982;8.560;2024-02-14T03:06:54;23.00;;;21.70;;
58982;SDS011;44771;49.982;8.560;2024-02-14T03:11:57;23.35;;;21.87;;
58982;SDS011;44771;49.982;8.560;2024-02-14T03:16:59;22.17;;;20.75;;
58982;SDS011;44771;49.982;8.560;2024-02-14T03:22:01;22.23;;;20.75;;
58982;SDS011;44771;49.982;8.560;2024-02-14T03:27:04;23.60;;;22.20;;
58982;SDS011;44771;49.982;8.560;2024-02-14T03:32:06;23.62;;;22.02;;
58982;SDS011;44771;49.982;8.560;2024-02-14T03:37:08;22.55;;;21.15;;
58982;SDS011;44771;49.982;8.560;2024-02-14T03:42:13;22.50;;;21.30;;
58982;SDS011;44771;49.982;8.560;2024-02-14T03:47:15;21.70;;;20.48;;
58982;SDS011;44771;49.982;8.560;2024-02-14T03:52:17;23.12;;;21.40;;
58982;SDS011;44771;49.982;8.560;2024-02-14T03:57:20;20.98;;;19.58;;
58982;SDS011;44771;49.982;8.560;2024-02-14T04:02:22;21.23;;;20.12;;
58982;SDS011;44771;49.982;8.560;2024-02-14T04:07:24;23.23;;;21.80;;
58982;SDS011;44771;49.982;8.560;2024-02-14T04:12:27;22.67;;;21.35;;
58982;SDS011;44771;49.982;8.560;2024-02-14T04:17:29;21.48;;;20.30;;
58982;SDS011;44771;49.982;8.560;2024-02-14T04:22:31;22.52;;;21.27;;
58982;SDS011;44771;49.982;8.560;2024-02-14T04:27:34;22.27;;;20.98;;
58982;SDS011;44771;49.982;8.560;2024-02-14T04:32:38;23.50;;;22.05;;
58982;SDS011;44771;49.982;8.560;2024-02-14T04:37:40;25.58;;;23.60;;
58982;SDS011;44771;49.982;8.560;2024-02-14T04:42:43;23.42;;;22.15;;
58982;SDS011;44771;49.982;8.560;2024-02-14T04:47:45;23.65;;;22.20;;
58982;SDS011;44771;49.982;8.560;2024-02-14T04:52:47;21.20;;;19.90;;
58982;SDS011;44771;49.982;8.560;2024-02-14T04:57:50;25.23;;;23.48;;
58982;SDS011;44771;49.982;8.560;2024-02-14T05:02:52;22.95;;;21.10;;
58982;SDS011;44771;49.982;8.560;2024-02-14T05:07:54;23.83;;;22.52;;
58982;SDS011;44771;49.982;8.560;2024-02-14T05:12:57;22.30;;;20.90;;
58982;SDS011;44771;49.982;8.560;2024-02-14T05:17:59;23.50;;;22.08;;
58982;SDS011;44771;49.982;8.560;2024-02-14T05:23:01;24.02;;;22.20;;
58982;SDS011;44771;49.982;8.560;2024-02-14T05:28:05;23.00;;;21.80;;
58982;SDS011;44771;49.982;8.560;2024-02-14T05:33:07;22.00;;;20.50;;
58982;SDS011;44771;49.982;8.560;2024-02-14T05:38:09;22.62;;;21.40;;
58982;SDS011;44771;49.982;8.560;2024-02-14T05:43:12;23.35;;;21.98;;
58982;SDS011;44771;49.982;8.560;2024-02-14T05:48:14;22.75;;;21.20;;
58982;SDS011;44771;49.982;8.560;2024-02-14T05:53:16;22.90;;;21.62;;
58982;SDS011;44771;49.982;8.560;2024-02-14T05:58:19;23.08;;;21.77;;
58982;SDS011;44771;49.982;8.560;2024-02-14T06:03:22;20.73;;;18.70;;
58982;SDS011;44771;49.982;8.560;2024-02-14T06:08:24;22.02;;;20.75;;
58982;SDS011;44771;49.982;8.560;2024-02-14T06:13:27;22.15;;;20.85;;
58982;SDS011;44771;49.982;8.560;2024-02-14T06:18:29;22.65;;;21.25;;
58982;SDS011;44771;49.982;8.560;2024-02-14T06:23:31;23.90;;;21.85;;
58982;SDS011;44771;49.982;8.560;2024-02-14T06:28:34;21.45;;;20.20;;
58982;SDS011;44771;49.982;8.560;2024-02-14T06:33:36;22.17;;;20.60;;
58982;SDS011;44771;49.982;8.560;2024-02-14T06:38:38;23.52;;;21.67;;
58982;SDS011;44771;49.982;8.560;2024-02-14T06:43:42;22.87;;;21.35;;
58982;SDS011;44771;49.982;8.560;2024-02-14T06:48:43;23.05;;;21.85;;
58982;SDS011;44771;49.982;8.560;2024-02-14T06:53:45;23.60;;;22.23;;
58982;SDS011;44771;49.982;8.560;2024-02-14T06:58:49;23.65;;;22.30;;
58982;SDS011;44771;49.982;8.560;2024-02-14T07:03:50;22.67;;;21.40;;
58982;SDS011;44771;49.982;8.560;2024-02-14T07:08:52;22.95;;;21.45;;
58982;SDS011;44771;49.982;8.560;2024-02-14T07:13:55;22.10;;;20.75;;
58982;SDS011;44771;49.982;8.560;2024-02-14T07:18:57;22.98;;;21.33;;
58982;SDS011;44771;49.982;8.560;2024-02-14T07:23:59;22.15;;;20.95;;
58982;SDS011;44771;49.982;8.560;2024-02-14T07:29:02;23.40;;;22.08;;
58982;SDS011;44771;49.982;8.560;2024-02-14T07:34:04;23.42;;;21.17;;
58982;SDS011;44771;49.982;8.560;2024-02-14T07:39:10;22.48;;;20.92;;
58982;SDS011;44771;49.982;8.560;2024-02-14T07:44:13;22.02;;;20.92;;
58982;SDS011;44771;49.982;8.560;2024-02-14T07:49:15;21.73;;;20.45;;
58982;SDS011;44771;49.982;8.560;2024-02-14T07:54:17;20.45;;;19.42;;
58982;SDS011;44771;49.982;8.560;2024-02-14T07:59:20;22.50;;;20.80;;
58982;SDS011;44771;49.982;8.560;2024-02-14T08:04:22;21.15;;;19.92;;
58982;SDS011;44771;49.982;8.560;2024-02-14T08:09:24;22.75;;;21.45;;
58982;SDS011;44771;49.982;8.560;2024-02-14T08:14:27;22.92;;;21.60;;
58982;SDS011;44771;49.982;8.560;2024-02-14T08:19:29;22.40;;;21.15;;
58982;SDS011;44771;49.982;8.560;2024-02-14T08:24:31;22.33;;;21.12;;
58982;SDS011;44771;49.982;8.560;2024-02-14T08:29:34;21.15;;;19.95;;
58982;SDS011;44771;49.982;8.560;2024-02-14T08:34:36;22.30;;;21.00;;
58982;SDS011;44771;49.982;8.560;2024-02-14T08:39:38;22.70;;;21.40;;
58982;SDS011;44771;49.982;8.560;2024-02-14T08:44:41;22.50;;;21.33;;
58982;SDS011;44771;49.982;8.560;2024-02-14T08:49:43;22.27;;;20.95;;
58982;SDS011;44771;49.982;8.560;2024-02-14T08:54:45;22.67;;;21.48;;
58982;SDS011;44771;49.982;8.560;2024-02-14T08:59:48;23.38;;;21.05;;
58982;SDS011;44771;49.982;8.560;2024-02-14T09:04:50;23.00;;;21.73;;
58982;SDS011;44771;49.982;8.560;2024-02-14T09:09:52;22.23;;;20.92;;
58982;SDS011;44771;49.982;8.560;2024-02-14T09:14:55;22.62;;;21.25;;
58982;SDS011;44771;49.982;8.560;2024-02-14T09:19:57;21.77;;;20.67;;
58982;SDS011;44771;49.982;8.560;2024-02-14T09:24:59;22.35;;;21.12;;
58982;SDS011;44771;49.982;8.560;2024-02-14T09:30:02;22.75;;;21.35;;
58982;SDS011;44771;49.982;8.560;2024-02-14T09:35:05;23.02;;;21.83;;
58982;SDS011;44771;49.982;8.560;2024-02-14T09:40:08;22.17;;;20.77;;
58982;SDS011;44771;49.982;8.560;2024-02-14T09:45:12;22.00;;;20.80;;
58982;SDS011;44771;49.982;8.560;2024-02-14T09:50:19;22.98;;;21.77;;
58982;SDS011;44771;49.982;8.560;2024-02-14T09:55:21;23.15;;;21.75;;
58982;SDS011;44771;49.982;8.560;2024-02-14T10:00:27;22.40;;;20.90;;
58982;SDS011;44771;49.982;8.560;2024-02-14T10:05:29;23.35;;;22.00;;
58982;SDS011;44771;49.982;8.560;2024-02-14T10:10:31;23.30;;;22.00;;
58982;SDS011;44771;49.982;8.560;2024-02-14T10:15:35;23.75;;;22.37;;
58982;SDS011;44771;49.982;8.560;2024-02-14T10:20:37;21.17;;;19.98;;
58982;SDS011;44771;49.982;8.560;2024-02-14T10:25:39;21.40;;;20.12;;
58982;SDS011;44771;49.982;8.560;2024-02-14T10:30:44;20.65;;;19.40;;
58982;SDS011;44771;49.982;8.560;2024-02-14T10:35:47;20.90;;;19.65;;
58982;SDS011;44771;49.982;8.560;2024-02-14T10:40:50;20.73;;;19.62;;
58982;SDS011;44771;49.982;8.560;2024-02-14T10:45:54;21.77;;;20.50;;
58982;SDS011;44771;49.982;8.560;2024-02-14T10:50:59;21.98;;;20.77;;
58982;SDS011;44771;49.982;8.560;2024-02-14T10:56:05;20.92;;;19.83;;
58982;SDS011;44771;49.982;8.560;2024-02-14T11:01:09;21.80;;;20.40;;
58982;SDS011;44771;49.982;8.560;2024-02-14T11:06:15;21.40;;;20.25;;
58982;SDS011;44771;49.982;8.560;2024-02-14T11:11:17;23.38;;;22.00;;
58982;SDS011;44771;49.982;8.560;2024-02-14T11:16:24;21.27;;;20.17;;
58982;SDS011;44771;49.982;8.560;2024-02-14T11:21:28;21.83;;;20.52;;
58982;SDS011;44771;49.982;8.560;2024-02-14T11:26:37;19.25;;;18.25;;
58982;SDS011;44771;49.982;8.560;2024-02-14T11:31:56;21.73;;;20.62;;
58982;SDS011;44771;49.982;8.560;2024-02-14T11:36:59;20.83;;;19.50;;
58982;SDS011;44771;49.982;8.560;2024-02-14T11:42:01;20.10;;;18.95;;
58982;SDS011;44771;49.982;8.560;2024-02-14T11:47:04;22.00;;;20.67;;
58982;SDS011;44771;49.982;8.560;2024-02-14T11:52:09;19.52;;;18.52;;
58982;SDS011;44771;49.982;8.560;2024-02-14T11:57:11;21.37;;;20.17;;
58982;SDS011;44771;49.982;8.560;2024-02-14T12:02:14;22.13;;;21.00;;
58982;SDS011;44771;49.982;8.560;2024-02-14T12:07:18;23.12;;;21.83;;
58982;SDS011;44771;49.982;8.560;2024-02-14T12:12:20;21.95;;;20.35;;
58982;SDS011;44771;49.982;8.560;2024-02-14T12:17:24;21.25;;;20.15;;
58982;SDS011;44771;49.982;8.560;2024-02-14T12:22:28;20.77;;;19.60;;
58982;SDS011;44771;49.982;8.560;2024-02-14T12:27:31;20.33;;;19.27;;
58982;SDS011;44771;49.982;8.560;2024-02-14T12:32:34;19.50;;;18.50;;
58982;SDS011;44771;49.982;8.560;2024-02-14T12:37:37;21.20;;;19.98;;
58982;SDS011;44771;49.982;8.560;2024-02-14T12:42:38;20.27;;;19.27;;
58982;SDS011;44771;49.982;8.560;2024-02-14T12:47:41;19.62;;;18.52;;
58982;SDS011;44771;49.982;8.560;2024-02-14T12:52:46;20.05;;;19.00;;
58982;SDS011;44771;49.982;8.560;2024-02-14T12:57:47;20.42;;;19.33;;
58982;SDS011;44771;49.982;8.560;2024-02-14T13:02:51;20.90;;;19.77;;
58982;SDS011;44771;49.982;8.560;2024-02-14T13:07:53;20.12;;;19.02;;
58982;SDS011;44771;49.982;8.560;2024-02-14T13:12:55;20.67;;;19.67;;
58982;SDS011;44771;49.982;8.560;2024-02-14T13:18:02;20.70;;;19.60;;
58982;SDS011;44771;49.982;8.560;2024-02-14T13:23:04;20.70;;;19.60;;
58982;SDS011;44771;49.982;8.560;2024-02-14T13:28:06;21.10;;;19.98;;
58982;SDS011;44771;49.982;8.560;2024-02-14T13:33:09;20.83;;;19.67;;
58982;SDS011;44771;49.982;8.560;2024-02-14T13:38:14;20.27;;;19.17;;
58982;SDS011;44771;49.982;8.560;2024-02-14T13:48:20;19.90;;;18.58;;
58982;SDS011;44771;49.982;8.560;2024-02-14T13:53:22;20.80;;;19.77;;
58982;SDS011;44771;49.982;8.560;2024-02-14T13:58:24;19.60;;;18.50;;
58982;SDS011;44771;49.982;8.560;2024-02-14T14:03:27;22.58;;;21.37;;
58982;SDS011;44771;49.982;8.560;2024-02-14T14:08:29;22.40;;;20.73;;
58982;SDS011;44771;49.982;8.560;2024-02-14T14:13:31;21.10;;;19.83;;
58982;SDS011;44771;49.982;8.560;2024-02-14T14:18:34;21.45;;;20.20;;
58982;SDS011;44771;49.982;8.560;2024-02-14T14:23:37;21.45;;;20.15;;
58982;SDS011;44771;49.982;8.560;2024-02-14T14:28:38;23.08;;;21.80;;
58982;SDS011;44771;49.982;8.560;2024-02-14T14:33:42;21.75;;;20.23;;
58982;SDS011;44771;49.982;8.560;2024-02-14T14:38:44;21.67;;;20.35;;
58982;SDS011;44771;49.982;8.560;2024-02-14T14:43:46;21.83;;;20.67;;
58982;SDS011;44771;49.982;8.560;2024-02-14T14:48:49;22.37;;;21.20;;
58982;SDS011;44771;49.982;8.560;2024-02-14T14:53:51;22.10;;;21.00;;
58982;SDS011;44771;49.982;8.560;2024-02-14T14:58:53;21.62;;;20.45;;
58982;SDS011;44771;49.982;8.560;2024-02-14T15:03:56;21.12;;;20.02;;
58982;SDS011;44771;49.982;8.560;2024-02-14T15:09:01;21.35;;;19.90;;
58982;SDS011;44771;49.982;8.560;2024-02-14T15:14:03;19.85;;;18.75;;
58982;SDS011;44771;49.982;8.560;2024-02-14T15:19:06;22.48;;;21.27;;
58982;SDS011;44771;49.982;8.560;2024-02-14T15:24:08;22.42;;;20.37;;
58982;SDS011;44771;49.982;8.560;2024-02-14T15:29:10;22.80;;;21.50;;
58982;SDS011;44771;49.982;8.560;2024-02-14T15:34:14;20.88;;;19.77;;
58982;SDS011;44771;49.982;8.560;2024-02-14T15:39:16;20.83;;;19.73;;
58982;SDS011;44771;49.982;8.560;2024-02-14T15:44:17;20.95;;;19.80;;
58982;SDS011;44771;49.982;8.560;2024-02-14T15:49:21;21.65;;;20.15;;
58982;SDS011;44771;49.982;8.560;2024-02-14T15:54:22;21.75;;;20.55;;
58982;SDS011;44771;49.982;8.560;2024-02-14T15:59:24;21.17;;;19.98;;
58982;SDS011;44771;49.982;8.560;2024-02-14T16:04:27;21.85;;;20.73;;
58982;SDS011;44771;49.982;8.560;2024-02-14T16:09:29;21.20;;;19.98;;
58982;SDS011;44771;49.982;8.560;2024-02-14T16:14:31;21.62;;;20.37;;
58982;SDS011;44771;49.982;8.560;2024-02-14T16:19:34;20.37;;;19.27;;
58982;SDS011;44771;49.982;8.560;2024-02-14T16:24:36;22.00;;;20.90;;
58982;SDS011;44771;49.982;8.560;2024-02-14T16:29:38;22.00;;;20.58;;
58982;SDS011;44771;49.982;8.560;2024-02-14T16:34:42;21.55;;;20.40;;
58982;SDS011;44771;49.982;8.560;2024-02-14T16:39:45;20.75;;;19.48;;
58982;SDS011;44771;49.982;8.560;2024-02-14T16:44:47;21.17;;;19.85;;
58982;SDS011;44771;49.982;8.560;2024-02-14T16:49:51;20.27;;;19.17;;
58982;SDS011;44771;49.982;8.560;2024-02-14T16:54:53;21.65;;;20.37;;
58982;SDS011;44771;49.982;8.560;2024-02-14T16:59:55;21.90;;;20.33;;
58982;SDS011;44771;49.982;8.560;2024-02-14T17:04:58;20.05;;;18.70;;
58982;SDS011;44771;49.982;8.560;2024-02-14T17:10:00;19.23;;;18.15;;
58982;SDS011;44771;49.982;8.560;2024-02-14T17:15:03;20.00;;;18.90;;
58982;SDS011;44771;49.982;8.560;2024-02-14T17:20:08;20.52;;;19.42;;
58982;SDS011;44771;49.982;8.560;2024-02-14T17:25:10;21.90;;;20.70;;
58982;SDS011;44771;49.982;8.560;2024-02-14T17:30:12;19.65;;;18.62;;
58982;SDS011;44771;49.982;8.560;2024-02-14T17:35:16;20.00;;;18.90;;
58982;SDS011;44771;49.982;8.560;2024-02-14T17:40:18;19.98;;;18.87;;
58982;SDS011;44771;49.982;8.560;2024-02-14T17:45:20;20.83;;;19.73;;
58982;SDS011;44771;49.982;8.560;2024-02-14T17:50:23;19.83;;;18.73;;
58982;SDS011;44771;49.982;8.560;2024-02-14T17:55:25;22.15;;;20.95;;
58982;SDS011;44771;49.982;8.560;2024-02-14T18:00:27;20.40;;;19.15;;
58982;SDS011;44771;49.982;8.560;2024-02-14T18:05:31;22.40;;;21.00;;
58982;SDS011;44771;49.982;8.560;2024-02-14T18:10:32;22.27;;;20.98;;
58982;SDS011;44771;49.982;8.560;2024-02-14T18:15:34;21.08;;;19.73;;
58982;SDS011;44771;49.982;8.560;2024-02-14T18:20:38;20.55;;;19.37;;
58982;SDS011;44771;49.982;8.560;2024-02-14T18:25:39;19.50;;;18.50;;
58982;SDS011;44771;49.982;8.560;2024-02-14T18:30:41;20.52;;;19.52;;
58982;SDS011;44771;49.982;8.560;2024-02-14T18:35:44;19.85;;;18.83;;
58982;SDS011;44771;49.982;8.560;2024-02-14T18:40:46;19.73;;;18.62;;
58982;SDS011;44771;49.982;8.560;2024-02-14T18:45:48;20.25;;;19.23;;
58982;SDS011;44771;49.982;8.560;2024-02-14T18:50:51;19.95;;;18.85;;
58982;SDS011;44771;49.982;8.560;2024-02-14T18:55:54;20.73;;;19.62;;
58982;SDS011;44771;49.982;8.560;2024-02-14T19:00:56;19.65;;;18.58;;
58982;SDS011;44771;49.982;8.560;2024-02-14T19:05:59;20.00;;;18.92;;
58982;SDS011;44771;49.982;8.560;2024-02-14T19:11:01;21.10;;;19.85;;
58982;SDS011;44771;49.982;8.560;2024-02-14T19:16:03;20.62;;;19.45;;
58982;SDS011;44771;49.982;8.560;2024-02-14T19:21:14;21.65;;;20.45;;
58982;SDS011;44771;49.982;8.560;2024-02-14T19:26:16;21.98;;;20.77;;
58982;SDS011;44771;49.982;8.560;2024-02-14T19:31:18;21.48;;;20.10;;
58982;SDS011;44771;49.982;8.560;2024-02-14T19:36:21;21.42;;;20.17;;
58982;SDS011;44771;49.982;8.560;2024-02-14T19:41:23;20.92;;;19.55;;
58982;SDS011;44771;49.982;8.560;2024-02-14T19:46:25;22.37;;;20.90;;
58982;SDS011;44771;49.982;8.560;2024-02-14T19:51:28;20.83;;;19.73;;
58982;SDS011;44771;49.982;8.560;2024-02-14T19:56:30;22.20;;;20.90;;
58982;SDS011;44771;49.982;8.560;2024-02-14T20:01:32;21.42;;;20.15;;
58982;SDS011;44771;49.982;8.560;2024-02-14T20:06:38;21.20;;;20.00;;
58982;SDS011;44771;49.982;8.560;2024-02-14T20:11:40;19.48;;;18.17;;
58982;SDS011;44771;49.982;8.560;2024-02-14T20:16:44;22.30;;;20.73;;
58982;SDS011;44771;49.982;8.560;2024-02-14T20:21:47;21.30;;;20.10;;
58982;SDS011;44771;49.982;8.560;2024-02-14T20:26:49;21.50;;;20.33;;
58982;SDS011;44771;49.982;8.560;2024-02-14T20:31:51;21.62;;;20.42;;
58982;SDS011;44771;49.982;8.560;2024-02-14T20:36:54;21.02;;;19.83;;
58982;SDS011;44771;49.982;8.560;2024-02-14T20:41:56;21.65;;;20.17;;
58982;SDS011;44771;49.982;8.560;2024-02-14T20:46:58;21.58;;;20.27;;
58982;SDS011;44771;49.982;8.560;2024-02-14T20:52:01;22.27;;;20.75;;
58982;SDS011;44771;49.982;8.560;2024-02-14T20:57:03;20.48;;;19.20;;
58982;SDS011;44771;49.982;8.560;2024-02-14T21:02:05;20.08;;;18.98;;
58982;SDS011;44771;49.982;8.560;2024-02-14T21:07:08;20.23;;;19.00;;
58982;SDS011;44771;49.982;8.560;2024-02-14T21:12:11;20.42;;;19.15;;
58982;SDS011;44771;49.982;8.560;2024-02-14T21:17:13;21.17;;;19.95;;
58982;SDS011;44771;49.982;8.560;2024-02-14T21:22:16;21.27;;;19.58;;
58982;SDS011;44771;49.982;8.560;2024-02-14T21:27:18;21.05;;;19.55;;
58982;SDS011;44771;49.982;8.560;2024-02-14T21:32:19;19.83;;;18.55;;
58982;SDS011;44771;49.982;8.560;2024-02-14T21:37:23;21.62;;;19.90;;
58982;SDS011;44771;49.982;8.560;2024-02-14T21:42:24;22.40;;;21.00;;
58982;SDS011;44771;49.982;8.560;2024-02-14T21:47:29;23.15;;;21.65;;
58982;SDS011;44771;49.982;8.560;2024-02-14T21:52:33;22.83;;;21.12;;
58982;SDS011;44771;49.982;8.560;2024-02-14T21:57:34;21.85;;;20.50;;
58982;SDS011;44771;49.982;8.560;2024-02-14T22:02:37;21.75;;;20.35;;
58982;SDS011;44771;49.982;8.560;2024-02-14T22:07:40;21.45;;;20.05;;
58982;SDS011;44771;49.982;8.560;2024-02-14T22:12:43;22.15;;;20.58;;
58982;SDS011;44771;49.982;8.560;2024-02-14T22:17:45;22.33;;;20.85;;
58982;SDS011;44771;49.982;8.560;2024-02-14T22:22:48;23.40;;;21.95;;
58982;SDS011;44771;49.982;8.560;2024-02-14T22:27:50;21.30;;;19.73;;
58982;SDS011;44771;49.982;8.560;2024-02-14T22:32:52;22.90;;;21.35;;
58982;SDS011;44771;49.982;8.560;2024-02-14T22:37:55;21.02;;;19.75;;
58982;SDS011;44771;49.982;8.560;2024-02-14T22:42:57;22.02;;;20.60;;
58982;SDS011;44771;49.982;8.560;2024-02-14T22:47:59;21.65;;;20.12;;
58982;SDS011;44771;49.982;8.560;2024-02-14T22:53:02;22.45;;;20.75;;
58982;SDS011;44771;49.982;8.560;2024-02-14T22:58:04;22.37;;;20.65;;
58982;SDS011;44771;49.982;8.560;2024-02-14T23:03:06;24.48;;;22.55;;
58982;SDS011;44771;49.982;8.560;2024-02-14T23:08:11;22.63;;;20.97;;
58982;SDS011;44771;49.982;8.560;2024-02-14T23:13:13;20.40;;;18.95;;
58982;SDS011;44771;49.982;8.560;2024-02-14T23:18:15;21.33;;;19.70;;
58982;SDS011;44771;49.982;8.560;2024-02-14T23:23:20;20.33;;;19.03;;
58982;SDS011;44771;49.982;8.560;2024-02-14T23:28:23;21.87;;;20.37;;
58982;SDS011;44771;49.982;8.560;2024-02-14T23:33:25;22.25;;;20.40;;
58982;SDS011;44771;49.982;8.560;2024-02-14T23:38:28;21.02;;;19.42;;
58982;SDS011;44771;49.982;8.560;2024-02-14T23:43:30;19.95;;;18.45;;
58982;SDS011;44771;49.982;8.560;2024-02-14T23:48:31;21.15;;;19.65;;
58982;SDS011;44771;49.982;8.560;2024-02-14T23:53:35;20.80;;;19.30;;
58982;SDS011;44771;49.982;8.560;2024-02-14T23:58:37;21.12;;;19.77;;
